Burns Municipal Airport
KBNO : rendu visible

Aérodrome :











RETROUVEZ-NOUS SUR...

 
LOGIN :

S'inscrire | Disclaimer

   EN    FR    IT 

 









Légende :    VFR   VFR Marginal   IFR   IFR Intensif   IFR Très Intensif
Visi : 
Plafond : 
>= 8 km
>= 3000ft
5 à 8 km
1000 à 3000 ft
1500m à 5 km
500 à 1000 ft
800 à 1500m
200 à 500 ft
< 800m
< 200 ft
Symboles :   Orages  Brouillard  Fortes neiges  Fortes précipitations  Vent > 20 kt






- Altitude de l'aérodrome : 4148 ft


KBNO - Burns Municipal

DERNIER METAR :
  • 250153Z AUTO 32008KT 10SM CLR 21/01 A3010 RMK AO2 SLP174 T02110006

METARs EXPIRÉS :
  • 250053Z AUTO 32008KT 10SM CLR 22/M02 A3010 RMK AO2 SLP178 T02221017
  • 242353Z AUTO VRB05KT 10SM FEW090 22/M01 A3010 RMK AO2 SLP179 T02171011 10233 20161 56012

TAF KBNO
Valide du 25 à 00h jusqu'au 26 à 00h UTC


242341Z 2500/2524 27007KT P6SM SCT250
FM250900 VRB03KT P6SM SKC
FM252000 24008KT P6SM SCT250
FIR KZLC / Amérique du Nord



MET'MAP, la Météo Aéronautique d'un coup d'oeil ! - Copyright ORBIFLY Décembre 2007 - Disclaimer

ORBIFLY MET'MAP TEAM :

Programmation & Développement : Alexandra Zaïnal
Sur une idée originale de : Baudouin d'Aumeries
Assistance à la programmation : Marc-Olivier Méhu
Soutien technique & logistique : Manuel Goepfert

Contact : metmap@orbifly.com




SOURCES & CREDITS :

   NOAA       Earth
Advisory